createdAt,value
2022-09-27T00:01:11.199Z,12.70
2022-09-27T00:03:44.156Z,12.53
2022-09-27T00:06:16.926Z,11.93
2022-09-27T00:08:45.240Z,12.97
2022-09-27T00:11:20.627Z,11.60
2022-09-27T00:13:48.928Z,11.33
2022-09-27T00:16:18.859Z,12.07
2022-09-27T00:18:47.257Z,11.13
2022-09-27T00:21:15.912Z,11.13
2022-09-27T00:23:44.544Z,12.80
2022-09-27T00:26:14.434Z,11.93
2022-09-27T00:28:42.840Z,12.77
2022-09-27T00:31:24.650Z,12.53
2022-09-27T00:33:55.155Z,12.53
2022-09-27T00:36:25.793Z,12.53
2022-09-27T00:38:54.583Z,14.07
2022-09-27T00:41:25.701Z,12.73
2022-09-27T00:43:57.346Z,12.93
2022-09-27T00:46:32.654Z,13.77
2022-09-27T00:49:08.429Z,12.50
2022-09-27T00:51:38.514Z,13.50
2022-09-27T00:54:10.496Z,13.13
2022-09-27T00:56:40.400Z,13.87
2022-09-27T00:59:14.968Z,13.40
2022-09-27T01:01:45.660Z,12.57
2022-09-27T01:04:18.355Z,14.27
2022-09-27T01:06:46.897Z,13.53
2022-09-27T01:09:16.052Z,12.97
2022-09-27T01:11:48.131Z,12.80
2022-09-27T01:14:45.117Z,13.80
2022-09-27T01:17:27.807Z,12.57
2022-09-27T01:20:38.328Z,12.87
2022-09-27T01:23:30.412Z,13.27
2022-09-27T01:26:14.512Z,12.77
2022-09-27T01:28:57.492Z,13.13
2022-09-27T01:31:34.439Z,13.00
2022-09-27T01:34:06.936Z,13.43
2022-09-27T01:36:44.478Z,13.43
2022-09-27T01:39:28.422Z,13.47
2022-09-27T01:42:30.183Z,12.83
2022-09-27T01:45:03.830Z,13.33
2022-09-27T01:47:46.529Z,13.50
2022-09-27T01:50:40.432Z,12.93
2022-09-27T01:53:14.639Z,13.00
2022-09-27T01:56:05.888Z,13.30
2022-09-27T01:59:01.285Z,12.93
2022-09-27T02:01:33.464Z,13.80
2022-09-27T02:04:05.480Z,12.10
2022-09-27T02:06:37.388Z,14.17
2022-09-27T02:09:21.147Z,12.63
2022-09-27T02:12:20.083Z,12.10
2022-09-27T02:14:52.864Z,12.23
2022-09-27T02:17:30.710Z,12.47
2022-09-27T02:20:12.165Z,11.73
2022-09-27T02:22:50.937Z,12.87
2022-09-27T02:25:29.542Z,12.93
2022-09-27T02:28:04.143Z,12.43
2022-09-27T02:30:36.551Z,11.20
2022-09-27T02:33:19.498Z,11.03
2022-09-27T02:35:49.578Z,13.43
2022-09-27T02:38:18.023Z,12.97
2022-09-27T02:40:48.097Z,11.97
2022-09-27T02:43:20.212Z,11.40
2022-09-27T02:46:02.395Z,11.13
2022-09-27T02:48:39.308Z,11.80
2022-09-27T02:51:18.793Z,11.67
2022-09-27T02:54:00.575Z,9.90
2022-09-27T02:56:57.302Z,8.83
2022-09-27T02:59:58.159Z,10.27
2022-09-27T03:02:52.341Z,10.03
2022-09-27T03:05:29.019Z,9.60
2022-09-27T03:07:58.927Z,10.40
2022-09-27T03:10:29.845Z,10.63
2022-09-27T03:13:00.091Z,12.90
2022-09-27T03:15:28.829Z,10.77
2022-09-27T03:18:02.803Z,11.30
2022-09-27T03:20:49.794Z,10.83
2022-09-27T03:23:23.115Z,10.80
2022-09-27T03:25:51.853Z,12.03
2022-09-27T03:28:20.614Z,10.63
2022-09-27T03:30:49.805Z,11.17
2022-09-27T03:33:38.540Z,11.30
2022-09-27T03:36:10.174Z,10.83
2022-09-27T03:38:40.389Z,11.50
2022-09-27T03:41:12.258Z,11.47
2022-09-27T03:43:41.373Z,11.80
2022-09-27T03:46:09.762Z,13.10
2022-09-27T03:48:38.734Z,11.43
2022-09-27T03:51:08.463Z,11.40
2022-09-27T03:53:37.000Z,12.07
2022-09-27T03:56:07.295Z,11.53
2022-09-27T03:58:36.103Z,12.10
2022-09-27T04:01:05.520Z,12.43
2022-09-27T04:03:36.153Z,12.03
2022-09-27T04:06:07.811Z,12.23
2022-09-27T04:08:40.111Z,13.50
2022-09-27T04:11:11.585Z,12.20
2022-09-27T04:13:44.051Z,13.43
2022-09-27T04:16:12.755Z,13.30
2022-09-27T04:19:07.324Z,13.57
2022-09-27T04:21:38.481Z,12.37
2022-09-27T04:24:08.536Z,12.87
2022-09-27T04:26:38.890Z,11.63
2022-09-27T04:29:12.742Z,12.57
2022-09-27T04:31:48.218Z,12.53
2022-09-27T04:35:10.282Z,13.40
2022-09-27T04:37:38.588Z,14.57
2022-09-27T04:40:08.176Z,12.50
2022-09-27T04:42:38.227Z,12.70
2022-09-27T04:45:07.830Z,11.37
2022-09-27T04:47:36.442Z,12.10
2022-09-27T04:50:05.313Z,11.17
2022-09-27T04:52:33.694Z,11.07
2022-09-27T04:55:02.177Z,10.87
2022-09-27T04:57:33.097Z,11.53
2022-09-27T05:00:03.346Z,12.50
2022-09-27T05:02:32.829Z,10.47
2022-09-27T05:05:36.931Z,11.10
2022-09-27T05:08:05.499Z,10.83
2022-09-27T05:10:54.661Z,12.23
2022-09-27T05:13:23.437Z,12.03
2022-09-27T05:15:53.259Z,12.17
2022-09-27T05:18:40.755Z,11.67
2022-09-27T05:21:27.633Z,11.33
2022-09-27T05:23:56.487Z,11.10
2022-09-27T05:26:24.800Z,11.20
2022-09-27T05:28:53.163Z,10.63
2022-09-27T05:31:23.063Z,11.37
2022-09-27T05:33:51.535Z,11.27
2022-09-27T05:36:49.790Z,12.20
2022-09-27T05:39:18.753Z,11.60
2022-09-27T05:44:22.412Z,13.10
2022-09-27T05:47:01.863Z,13.20
2022-09-27T05:49:30.930Z,12.77
2022-09-27T05:51:59.461Z,12.87
2022-09-27T05:54:30.665Z,14.60
2022-09-27T05:57:02.135Z,15.67
2022-09-27T05:59:49.135Z,14.67
2022-09-27T06:02:24.816Z,13.20
2022-09-27T06:05:11.816Z,15.77
2022-09-27T06:07:46.179Z,15.23
2022-09-27T06:10:25.898Z,16.47
2022-09-27T06:12:54.458Z,22.77
2022-09-27T06:15:37.463Z,19.07
2022-09-27T06:18:10.163Z,18.50
2022-09-27T06:20:39.325Z,16.10
2022-09-27T06:23:09.095Z,13.90
2022-09-27T06:25:39.408Z,13.07
2022-09-27T06:28:20.094Z,13.57
2022-09-27T06:30:51.656Z,13.47
2022-09-27T06:33:45.301Z,13.53
2022-09-27T06:36:14.347Z,13.30
2022-09-27T06:38:44.170Z,14.60
2022-09-27T06:41:16.200Z,16.00
2022-09-27T06:43:57.254Z,13.63
2022-09-27T06:46:43.951Z,15.23
2022-09-27T06:49:49.498Z,15.00
2022-09-27T06:52:19.849Z,15.03
2022-09-27T06:54:48.834Z,13.77
2022-09-27T06:57:37.152Z,13.80
2022-09-27T07:00:23.939Z,14.70
2022-09-27T07:03:35.567Z,14.02
2022-09-27T07:06:32.480Z,13.27
2022-09-27T07:09:07.138Z,13.93
2022-09-27T07:11:36.673Z,14.68
2022-09-27T07:14:06.491Z,13.48
2022-09-27T07:16:35.388Z,15.13
2022-09-27T07:19:07.585Z,14.65
2022-09-27T07:21:37.376Z,13.65
2022-09-27T07:24:06.862Z,14.45
2022-09-27T07:26:35.342Z,14.35
2022-09-27T07:29:06.124Z,13.45
2022-09-27T07:31:34.849Z,13.20
2022-09-27T07:34:03.253Z,12.75
2022-09-27T07:36:31.694Z,16.25
2022-09-27T07:39:01.922Z,13.05
2022-09-27T07:41:33.185Z,13.55
2022-09-27T07:44:02.862Z,12.02
2022-09-27T07:46:34.059Z,13.20
2022-09-27T07:49:09.920Z,13.30
2022-09-27T07:51:59.377Z,12.68
2022-09-27T07:54:55.143Z,12.00
2022-09-27T07:57:36.182Z,11.85
2022-09-27T08:00:06.225Z,11.02
2022-09-27T08:02:42.012Z,12.20
2022-09-27T08:05:12.607Z,11.38
2022-09-27T08:07:41.791Z,11.00
2022-09-27T08:10:11.749Z,12.30
2022-09-27T08:12:40.621Z,10.15
2022-09-27T08:15:10.090Z,11.43
2022-09-27T08:17:38.685Z,10.27
2022-09-27T08:20:17.520Z,10.30
2022-09-27T08:23:09.540Z,9.73
2022-09-27T08:25:44.164Z,10.45
2022-09-27T08:28:28.416Z,8.77
2022-09-27T08:31:02.651Z,9.77
2022-09-27T08:33:33.437Z,9.85
2022-09-27T08:36:03.865Z,9.35
2022-09-27T08:38:32.520Z,8.95
2022-09-27T08:41:09.223Z,9.68
2022-09-27T08:43:46.178Z,9.02
2022-09-27T08:46:24.065Z,9.63
2022-09-27T08:48:57.537Z,10.18
2022-09-27T08:51:31.130Z,9.25
2022-09-27T08:54:06.741Z,10.00
2022-09-27T08:56:38.051Z,9.80
2022-09-27T08:59:14.580Z,9.90
2022-09-27T09:01:43.837Z,10.18
2022-09-27T09:04:29.716Z,8.07
2022-09-27T09:07:06.922Z,77.33
2022-09-27T09:09:45.632Z,67.67
2022-09-27T09:12:48.697Z,68.60
2022-09-27T09:15:55.280Z,66.82
2022-09-27T09:18:41.852Z,72.03
2022-09-27T09:21:23.868Z,90.60
2022-09-27T09:24:27.265Z,98.63
2022-09-27T09:27:03.549Z,8.38
2022-09-27T09:29:58.826Z,9.65
2022-09-27T09:32:35.518Z,8.40
2022-09-27T09:35:08.028Z,9.13
2022-09-27T09:37:41.804Z,8.90
2022-09-27T09:40:21.168Z,8.95
2022-09-27T09:42:55.298Z,9.02
2022-09-27T09:45:29.626Z,8.50
2022-09-27T09:48:03.997Z,9.02
2022-09-27T09:50:38.948Z,9.82
2022-09-27T09:53:16.172Z,8.50
2022-09-27T09:55:49.397Z,9.23
2022-09-27T09:58:24.816Z,8.73
2022-09-27T10:01:10.261Z,8.93
2022-09-27T10:03:41.818Z,8.50
2022-09-27T10:06:11.823Z,7.65
2022-09-27T10:08:41.559Z,8.10
2022-09-27T10:11:33.825Z,7.20
2022-09-27T10:14:19.425Z,8.50
2022-09-27T10:16:57.154Z,7.50
2022-09-27T10:19:30.641Z,8.82
2022-09-27T10:22:04.078Z,7.13
2022-09-27T10:24:54.392Z,8.52
2022-09-27T10:27:43.553Z,7.97
2022-09-27T10:30:29.992Z,7.90
2022-09-27T10:33:05.695Z,7.47
2022-09-27T10:35:45.288Z,7.78
2022-09-27T10:38:28.835Z,6.40
2022-09-27T10:41:23.111Z,7.43
2022-09-27T10:43:52.999Z,9.45
2022-09-27T10:46:30.011Z,9.18
2022-09-27T10:49:17.627Z,9.50
2022-09-27T10:51:53.177Z,9.30
2022-09-27T10:54:27.737Z,9.50
2022-09-27T10:56:59.983Z,9.52
2022-09-27T10:59:31.764Z,9.98
2022-09-27T11:02:00.984Z,9.65
2022-09-27T11:04:45.057Z,9.52
2022-09-27T11:07:16.741Z,10.43
2022-09-27T11:09:52.738Z,10.02
2022-09-27T11:12:26.141Z,9.27
2022-09-27T11:15:00.150Z,9.23
2022-09-27T11:17:43.312Z,8.95
2022-09-27T11:20:23.395Z,10.07
2022-09-27T11:23:33.213Z,9.23
2022-09-27T11:26:23.464Z,9.38
2022-09-27T11:28:59.664Z,10.32
2022-09-27T11:32:08.544Z,10.30
2022-09-27T11:34:54.287Z,9.02
2022-09-27T11:37:32.390Z,9.05
2022-09-27T11:40:15.089Z,8.75
2022-09-27T11:43:11.766Z,10.38
2022-09-27T11:46:14.288Z,9.95
2022-09-27T11:48:54.733Z,8.57
2022-09-27T11:51:38.928Z,11.00
2022-09-27T11:54:29.911Z,9.88
2022-09-27T11:57:05.164Z,10.52
2022-09-27T11:59:54.844Z,10.93
2022-09-27T12:02:46.461Z,11.00
2022-09-27T12:05:25.894Z,10.57
2022-09-27T12:08:14.413Z,9.73
2022-09-27T12:10:49.226Z,10.27
2022-09-27T12:13:24.226Z,8.82
2022-09-27T12:15:53.028Z,12.93
2022-09-27T12:18:28.534Z,10.65
2022-09-27T12:21:00.690Z,9.40
2022-09-27T12:23:38.612Z,11.52
2022-09-27T12:26:21.751Z,10.25
2022-09-27T12:28:55.246Z,12.05
2022-09-27T12:31:30.028Z,11.30
2022-09-27T12:34:09.750Z,10.98
2022-09-27T12:36:44.315Z,11.10
2022-09-27T12:39:18.252Z,9.02
2022-09-27T12:42:01.905Z,9.93
2022-09-27T12:44:44.915Z,10.43
2022-09-27T12:47:35.591Z,8.95
2022-09-27T12:50:13.673Z,10.00
2022-09-27T12:52:48.432Z,9.88
2022-09-27T12:55:33.533Z,10.18
2022-09-27T12:58:33.262Z,9.35
2022-09-27T13:01:10.987Z,8.98
2022-09-27T13:03:52.910Z,9.43
2022-09-27T13:06:36.447Z,9.93
2022-09-27T13:09:29.338Z,8.23
2022-09-27T13:12:09.910Z,7.57
2022-09-27T13:14:49.361Z,9.15
2022-09-27T13:17:50.053Z,8.93
2022-09-27T13:20:46.332Z,8.25
2022-09-27T13:23:59.140Z,8.90
2022-09-27T13:26:47.316Z,9.27
2022-09-27T13:29:29.455Z,8.95
2022-09-27T13:32:16.152Z,8.93
2022-09-27T13:35:21.951Z,9.05
2022-09-27T13:38:00.546Z,9.25
2022-09-27T13:40:45.127Z,8.55
2022-09-27T13:43:41.539Z,9.75
2022-09-27T13:46:37.453Z,10.38
2022-09-27T13:49:18.322Z,9.90
2022-09-27T13:52:20.735Z,10.40
2022-09-27T13:54:57.202Z,9.45
2022-09-27T13:57:55.135Z,9.43
2022-09-27T14:00:33.842Z,9.65
2022-09-27T14:03:08.673Z,10.05
2022-09-27T14:05:43.004Z,10.88
2022-09-27T14:08:22.222Z,8.45
2022-09-27T14:10:51.988Z,7.30
2022-09-27T14:13:21.730Z,10.05
2022-09-27T14:16:02.464Z,7.47
2022-09-27T14:18:31.020Z,7.72
2022-09-27T14:21:18.251Z,8.05
2022-09-27T14:23:53.883Z,9.68
2022-09-27T14:26:30.014Z,8.30
2022-09-27T14:28:58.334Z,6.68
2022-09-27T14:31:31.619Z,8.15
2022-09-27T14:34:31.985Z,8.48
2022-09-27T14:37:27.575Z,8.85
2022-09-27T14:40:06.764Z,7.95
2022-09-27T14:42:37.519Z,8.20
2022-09-27T14:45:15.995Z,9.55
2022-09-27T14:47:48.038Z,9.45
2022-09-27T14:50:20.932Z,9.13
2022-09-27T14:52:55.485Z,8.30
2022-09-27T14:55:25.662Z,6.25
2022-09-27T14:57:56.277Z,6.93
2022-09-27T15:00:26.621Z,8.73
2022-09-27T15:02:59.054Z,8.18
2022-09-27T15:05:31.495Z,7.10
2022-09-27T15:08:07.172Z,7.70
2022-09-27T15:10:37.521Z,8.02
2022-09-27T15:13:07.237Z,8.38
2022-09-27T15:15:39.729Z,10.23
2022-09-27T15:18:34.090Z,16.40
2022-09-27T15:21:02.970Z,10.90
2022-09-27T15:23:40.081Z,10.88
2022-09-27T15:26:12.565Z,12.15
2022-09-27T15:28:45.149Z,11.35
2022-09-27T15:31:14.076Z,11.48
2022-09-27T15:33:43.409Z,11.27
2022-09-27T15:36:15.485Z,16.10
2022-09-27T15:38:47.419Z,14.68
2022-09-27T15:41:16.722Z,15.07
2022-09-27T15:43:46.809Z,14.95
2022-09-27T15:46:36.874Z,13.95
2022-09-27T15:49:30.222Z,14.85
2022-09-27T15:52:00.420Z,11.25
2022-09-27T15:54:33.223Z,9.43
2022-09-27T15:57:04.519Z,9.75
2022-09-27T15:59:35.566Z,9.48
2022-09-27T16:02:11.226Z,12.20
2022-09-27T16:04:39.698Z,16.35
2022-09-27T16:07:09.904Z,9.90
2022-09-27T16:09:39.761Z,12.88
2022-09-27T16:12:08.037Z,17.67
2022-09-27T16:14:36.444Z,13.38
2022-09-27T16:17:04.779Z,12.85
2022-09-27T16:19:33.052Z,13.45
2022-09-27T16:22:03.526Z,20.33
2022-09-27T16:24:32.421Z,22.77
2022-09-27T16:27:03.183Z,23.75
2022-09-27T16:29:31.770Z,20.98
2022-09-27T16:32:00.112Z,20.67
2022-09-27T16:34:28.443Z,24.88
2022-09-27T16:36:59.578Z,21.52
2022-09-27T16:39:29.932Z,20.33
2022-09-27T16:41:59.840Z,26.40
2022-09-27T16:44:29.360Z,26.23
2022-09-27T16:46:57.993Z,29.58
2022-09-27T16:49:43.938Z,35.50
2022-09-27T16:52:12.445Z,33.92
2022-09-27T16:54:41.405Z,39.00
2022-09-27T16:57:10.199Z,45.70
2022-09-27T16:59:39.917Z,45.20
2022-09-27T17:02:08.441Z,36.28
2022-09-27T17:04:36.796Z,42.15
2022-09-27T17:07:05.127Z,44.40
2022-09-27T17:09:34.197Z,35.17
2022-09-27T17:12:02.513Z,40.60
2022-09-27T17:14:32.234Z,47.03
2022-09-27T17:17:02.125Z,45.60
2022-09-27T17:19:30.356Z,41.72
2022-09-27T17:21:58.556Z,42.85
2022-09-27T17:24:27.740Z,48.15
2022-09-27T17:26:56.356Z,52.67
2022-09-27T17:29:25.131Z,57.90
2022-09-27T17:31:53.746Z,7.95
2022-09-27T17:34:23.783Z,10.43
2022-09-27T17:36:52.046Z,7.05
2022-09-27T17:39:22.459Z,6.07
2022-09-27T17:41:51.768Z,5.13
2022-09-27T17:44:20.356Z,5.15
2022-09-27T17:47:08.965Z,4.53
2022-09-27T17:49:57.067Z,4.28
2022-09-27T17:52:26.694Z,5.35
2022-09-27T17:54:57.540Z,5.18
2022-09-27T17:57:26.283Z,4.38
2022-09-27T17:59:54.898Z,4.38
2022-09-27T18:02:23.603Z,4.65
2022-09-27T18:04:53.310Z,9.23
2022-09-27T18:07:21.702Z,4.47
2022-09-27T18:09:51.117Z,4.85
2022-09-27T18:12:19.350Z,6.25
2022-09-27T18:14:49.158Z,5.50
2022-09-27T18:17:18.203Z,6.63
2022-09-27T18:19:46.358Z,7.82
2022-09-27T18:22:16.159Z,8.07
2022-09-27T18:24:44.864Z,7.05
2022-09-27T18:27:16.175Z,6.65
2022-09-27T18:29:44.875Z,7.47
2022-09-27T18:32:13.251Z,7.43
2022-09-27T18:34:41.428Z,6.80
2022-09-27T18:37:09.809Z,6.40
2022-09-27T18:39:40.255Z,6.38
2022-09-27T18:42:09.107Z,6.13
2022-09-27T18:44:37.867Z,6.85
2022-09-27T18:47:06.200Z,6.72
2022-09-27T18:49:34.795Z,6.38
2022-09-27T18:52:03.571Z,6.00
2022-09-27T18:54:31.909Z,6.13
2022-09-27T18:57:01.639Z,5.18
2022-09-27T18:59:30.062Z,5.65
2022-09-27T19:01:58.334Z,5.93
2022-09-27T19:04:26.885Z,6.03
2022-09-27T19:06:58.217Z,6.15
2022-09-27T19:09:27.361Z,6.70
2022-09-27T19:11:55.748Z,6.88
2022-09-27T19:14:25.592Z,6.90
2022-09-27T19:16:53.810Z,7.28
2022-09-27T19:19:22.238Z,7.35
2022-09-27T19:21:51.269Z,7.28
2022-09-27T19:24:19.794Z,8.05
2022-09-27T19:26:48.191Z,7.75
2022-09-27T19:29:16.993Z,7.80
2022-09-27T19:31:46.828Z,6.97
2022-09-27T19:34:15.508Z,7.75
2022-09-27T19:36:44.572Z,7.85
2022-09-27T19:39:12.821Z,7.82
2022-09-27T19:41:41.155Z,7.88
2022-09-27T19:44:09.667Z,8.90
2022-09-27T19:46:39.033Z,7.10
2022-09-27T19:49:08.716Z,6.90
2022-09-27T19:51:37.380Z,7.35
2022-09-27T19:54:05.877Z,7.25
2022-09-27T19:56:34.937Z,6.72
2022-09-27T19:59:07.071Z,6.68
2022-09-27T20:01:35.783Z,6.85
2022-09-27T20:04:04.560Z,6.65
2022-09-27T20:06:34.596Z,6.20
2022-09-27T20:09:04.130Z,5.53
2022-09-27T20:11:34.012Z,5.80
2022-09-27T20:14:02.834Z,6.40
2022-09-27T20:16:32.119Z,6.65
2022-09-27T20:19:02.044Z,7.40
2022-09-27T20:21:32.548Z,7.18
2022-09-27T20:24:03.520Z,6.75
2022-09-27T20:26:34.492Z,7.10
2022-09-27T20:29:04.156Z,6.63
2022-09-27T20:31:34.301Z,6.57
2022-09-27T20:34:02.800Z,6.90
2022-09-27T20:36:33.568Z,7.00
2022-09-27T20:39:06.374Z,7.88
2022-09-27T20:41:37.038Z,7.70
2022-09-27T20:44:07.938Z,7.82
2022-09-27T20:46:38.268Z,7.05
2022-09-27T20:49:08.521Z,7.32
2022-09-27T20:51:39.664Z,7.25
2022-09-27T20:54:11.439Z,7.78
2022-09-27T20:56:42.229Z,7.53
2022-09-27T20:59:16.148Z,7.25
2022-09-27T21:01:45.931Z,7.35
2022-09-27T21:04:16.707Z,7.28
2022-09-27T21:06:46.245Z,8.40
2022-09-27T21:09:18.912Z,7.30
2022-09-27T21:11:48.016Z,7.03
2022-09-27T21:14:16.672Z,6.55
2022-09-27T21:16:45.179Z,7.65
2022-09-27T21:19:13.951Z,6.38
2022-09-27T21:21:42.491Z,8.25
2022-09-27T21:24:11.132Z,7.45
2022-09-27T21:26:40.758Z,7.18
2022-09-27T21:29:11.649Z,7.25
2022-09-27T21:31:40.100Z,7.38
2022-09-27T21:34:08.569Z,7.40
2022-09-27T21:36:38.844Z,7.13
2022-09-27T21:39:09.239Z,8.25
2022-09-27T21:41:39.040Z,7.35
2022-09-27T21:44:11.437Z,7.10
2022-09-27T21:46:41.576Z,7.70
2022-09-27T21:49:11.058Z,6.50
2022-09-27T21:51:40.728Z,7.07
2022-09-27T21:54:11.392Z,6.40
2022-09-27T21:56:40.967Z,5.97
2022-09-27T21:59:13.916Z,6.03
2022-09-27T22:01:44.880Z,7.13
2022-09-27T22:04:14.495Z,6.57
2022-09-27T22:06:42.761Z,6.45
2022-09-27T22:09:15.547Z,6.38
2022-09-27T22:11:46.305Z,5.18
2022-09-27T22:14:17.326Z,5.50
2022-09-27T22:16:46.242Z,5.22
2022-09-27T22:19:16.316Z,5.53
2022-09-27T22:21:44.838Z,5.10
2022-09-27T22:24:15.103Z,5.50
2022-09-27T22:26:46.996Z,5.40
2022-09-27T22:29:17.693Z,5.55
2022-09-27T22:31:46.633Z,4.93
2022-09-27T22:34:18.697Z,4.95
2022-09-27T22:36:47.459Z,6.35
2022-09-27T22:39:15.929Z,6.67
2022-09-27T22:41:44.527Z,7.45
2022-09-27T22:44:13.344Z,5.97
2022-09-27T22:46:44.261Z,6.37
2022-09-27T22:49:13.730Z,6.10
2022-09-27T22:51:42.210Z,5.90
2022-09-27T22:54:10.391Z,4.95
2022-09-27T22:56:38.598Z,5.35
2022-09-27T22:59:07.058Z,5.53
2022-09-27T23:01:36.759Z,6.23
2022-09-27T23:04:06.527Z,5.00
2022-09-27T23:06:34.889Z,5.47
2022-09-27T23:09:03.103Z,5.40
2022-09-27T23:11:31.574Z,5.37
2022-09-27T23:13:59.984Z,4.63
2022-09-27T23:16:28.304Z,4.47
2022-09-27T23:18:57.932Z,4.80
2022-09-27T23:21:28.983Z,4.93
2022-09-27T23:23:59.679Z,5.28
2022-09-27T23:26:29.703Z,4.73
2022-09-27T23:28:59.620Z,4.70
2022-09-27T23:31:29.964Z,5.53
2022-09-27T23:34:00.281Z,4.78
2022-09-27T23:36:29.980Z,5.13
2022-09-27T23:39:01.232Z,4.77
2022-09-27T23:41:29.978Z,4.77
2022-09-27T23:43:59.125Z,4.37
2022-09-27T23:46:27.741Z,4.03
2022-09-27T23:48:58.839Z,5.00
2022-09-27T23:51:27.477Z,4.43
2022-09-27T23:53:58.116Z,5.80
2022-09-27T23:56:27.283Z,4.60
2022-09-27T23:58:55.624Z,4.40
